createdAt,value
2017-12-23T00:02:14.350Z,108.30
2017-12-23T00:04:42.366Z,108.00
2017-12-23T00:07:10.518Z,108.83
2017-12-23T00:09:38.575Z,110.77
2017-12-23T00:12:06.582Z,110.50
2017-12-23T00:14:34.771Z,114.93
2017-12-23T00:17:03.542Z,110.33
2017-12-23T00:19:32.328Z,112.47
2017-12-23T00:22:01.239Z,113.03
2017-12-23T00:24:29.262Z,108.00
2017-12-23T00:26:57.322Z,116.07
2017-12-23T00:29:25.441Z,117.13
2017-12-23T00:31:54.506Z,115.17
2017-12-23T00:34:33.198Z,116.53
2017-12-23T00:37:01.201Z,116.57
2017-12-23T00:39:29.246Z,116.13
2017-12-23T00:41:57.393Z,119.03
2017-12-23T00:44:26.175Z,113.97
2017-12-23T00:46:54.967Z,116.50
2017-12-23T00:49:23.850Z,111.97
2017-12-23T00:51:52.646Z,117.00
2017-12-23T00:54:21.410Z,109.10
2017-12-23T00:56:49.556Z,113.07
2017-12-23T00:59:17.603Z,113.67
2017-12-23T01:01:45.643Z,114.13
2017-12-23T01:04:13.775Z,113.10
2017-12-23T01:06:41.838Z,112.67
2017-12-23T01:09:09.912Z,113.87
2017-12-23T01:11:38.058Z,113.43
2017-12-23T01:14:06.844Z,118.87
2017-12-23T01:16:35.674Z,114.47
2017-12-23T01:19:03.851Z,116.50
2017-12-23T01:21:31.880Z,118.60
2017-12-23T01:23:59.885Z,118.43
2017-12-23T01:26:28.123Z,115.80
2017-12-23T01:28:56.196Z,113.43
2017-12-23T01:31:24.247Z,114.93
2017-12-23T01:33:52.559Z,115.30
2017-12-23T01:36:21.415Z,115.17
2017-12-23T01:38:49.431Z,112.23
2017-12-23T01:41:18.310Z,116.10
2017-12-23T01:43:46.327Z,113.20
2017-12-23T01:46:14.436Z,113.47
2017-12-23T01:48:42.575Z,111.60
2017-12-23T01:51:10.627Z,110.00
2017-12-23T01:53:39.427Z,113.97
2017-12-23T01:56:07.663Z,114.50
2017-12-23T01:58:35.686Z,117.83
2017-12-23T02:01:03.738Z,113.67
2017-12-23T02:03:32.623Z,121.57
2017-12-23T02:06:01.496Z,121.83
2017-12-23T02:08:29.519Z,117.43
2017-12-23T02:10:57.638Z,125.03
2017-12-23T02:13:25.663Z,117.47
2017-12-23T02:15:53.715Z,123.07
2017-12-23T02:18:22.691Z,112.70
2017-12-23T02:20:50.706Z,115.30
2017-12-23T02:23:18.718Z,115.07
2017-12-23T02:25:47.007Z,121.47
2017-12-23T02:28:15.060Z,117.70
2017-12-23T02:30:43.107Z,113.50
2017-12-23T02:33:11.272Z,118.50
2017-12-23T02:35:39.478Z,126.60
2017-12-23T02:38:07.555Z,119.67
2017-12-23T02:40:35.695Z,114.00
2017-12-23T02:43:03.710Z,119.70
2017-12-23T02:45:31.735Z,120.03
2017-12-23T02:47:59.879Z,118.57
2017-12-23T02:50:28.681Z,119.07
2017-12-23T02:52:57.442Z,119.23
2017-12-23T02:55:25.623Z,118.80
2017-12-23T02:57:53.667Z,127.27
2017-12-23T03:00:21.682Z,123.17
2017-12-23T03:02:50.562Z,124.87
2017-12-23T03:05:18.602Z,121.70
2017-12-23T03:07:46.639Z,114.87
2017-12-23T03:10:14.782Z,126.30
2017-12-23T03:12:42.794Z,119.30
2017-12-23T03:15:11.034Z,119.90
2017-12-23T03:17:39.189Z,112.37
2017-12-23T03:20:07.248Z,120.03
2017-12-23T03:22:35.300Z,116.47
2017-12-23T03:25:03.451Z,120.87
2017-12-23T03:27:32.218Z,116.77
2017-12-23T03:30:01.015Z,110.47
2017-12-23T03:32:29.894Z,110.87
2017-12-23T03:34:57.947Z,118.00
2017-12-23T03:37:26.104Z,115.57
2017-12-23T03:39:54.262Z,131.57
2017-12-23T03:42:22.311Z,116.10
2017-12-23T03:44:51.081Z,111.23
2017-12-23T03:47:20.000Z,119.60
2017-12-23T03:49:48.052Z,131.40
2017-12-23T03:52:16.844Z,134.50
2017-12-23T03:54:45.767Z,142.50
2017-12-23T03:57:13.794Z,160.43
2017-12-23T03:59:41.806Z,171.50
2017-12-23T04:02:09.976Z,165.30
2017-12-23T04:04:38.007Z,178.47
2017-12-23T04:07:06.059Z,167.80
2017-12-23T04:09:34.209Z,182.73
2017-12-23T04:12:02.270Z,202.77
2017-12-23T04:14:30.335Z,246.53
2017-12-23T04:16:58.546Z,253.30
2017-12-23T04:19:26.607Z,356.27
2017-12-23T04:21:54.626Z,874.93
2017-12-23T04:24:23.532Z,404.10
2017-12-23T04:26:52.332Z,564.40
2017-12-23T04:29:20.375Z,381.00
2017-12-23T04:31:49.298Z,274.17
2017-12-23T04:34:17.322Z,368.53
2017-12-23T04:36:45.452Z,676.27
2017-12-23T04:39:13.715Z,573.80
2017-12-23T04:41:41.775Z,405.57
2017-12-23T04:44:10.531Z,507.67
2017-12-23T04:46:38.791Z,422.10
2017-12-23T04:49:06.848Z,590.27
2017-12-23T04:51:34.919Z,447.30
2017-12-23T04:54:03.065Z,391.90
2017-12-23T04:56:31.915Z,445.10
2017-12-23T04:58:59.991Z,692.47
2017-12-23T05:01:28.151Z,679.03
2017-12-23T05:03:56.223Z,821.07
2017-12-23T05:06:24.306Z,740.40
2017-12-23T05:08:52.503Z,467.93
2017-12-23T05:11:21.271Z,632.50
2017-12-23T05:13:49.519Z,592.20
2017-12-23T05:16:17.747Z,446.17
2017-12-23T05:18:46.561Z,477.77
2017-12-23T05:21:14.579Z,361.23
2017-12-23T05:23:43.788Z,620.20
2017-12-23T05:26:12.671Z,469.57
2017-12-23T05:28:40.815Z,340.47
2017-12-23T05:31:08.954Z,302.60
2017-12-23T05:33:37.089Z,390.50
2017-12-23T05:36:05.655Z,253.63
2017-12-23T05:38:33.871Z,767.77
2017-12-23T05:41:02.071Z,373.33
2017-12-23T05:43:35.096Z,308.77
2017-12-23T05:46:04.060Z,244.93
2017-12-23T05:48:32.118Z,262.67
2017-12-23T05:51:00.885Z,228.23
2017-12-23T05:53:29.096Z,249.53
2017-12-23T05:55:57.311Z,210.13
2017-12-23T05:58:25.387Z,221.00
2017-12-23T06:00:54.118Z,238.70
2017-12-23T06:03:22.973Z,194.00
2017-12-23T06:05:51.015Z,200.77
2017-12-23T06:08:19.195Z,178.70
2017-12-23T06:10:51.610Z,204.97
2017-12-23T06:13:20.276Z,192.67
2017-12-23T06:15:49.035Z,185.17
2017-12-23T06:18:17.099Z,205.37
2017-12-23T06:20:45.795Z,173.33
2017-12-23T06:23:14.777Z,190.03
2017-12-23T06:25:42.877Z,177.73
2017-12-23T06:28:11.064Z,159.47
2017-12-23T06:30:39.115Z,169.77
2017-12-23T06:33:07.139Z,189.03
2017-12-23T06:35:35.463Z,178.93
2017-12-23T06:38:03.517Z,182.13
2017-12-23T06:40:32.302Z,159.80
2017-12-23T06:43:01.790Z,158.23
2017-12-23T06:45:34.958Z,157.07
2017-12-23T06:48:03.284Z,148.43
2017-12-23T06:50:32.053Z,147.47
2017-12-23T06:53:00.844Z,144.80
2017-12-23T06:55:29.770Z,139.37
2017-12-23T06:58:07.553Z,131.80
2017-12-23T07:49:46.103Z,92.17
2017-12-23T07:52:14.888Z,91.27
2017-12-23T07:54:43.639Z,101.10
2017-12-23T07:57:11.802Z,66.87
2017-12-23T07:59:39.834Z,68.10
2017-12-23T08:02:07.855Z,72.60
2017-12-23T08:04:35.982Z,86.57
2017-12-23T08:07:04.007Z,85.97
2017-12-23T08:09:32.035Z,72.67
2017-12-23T08:12:00.173Z,66.40
2017-12-23T08:14:28.926Z,67.97
2017-12-23T08:16:56.936Z,62.80
2017-12-23T08:19:25.859Z,58.13
2017-12-23T08:21:54.001Z,55.50
2017-12-23T08:24:22.836Z,53.97
2017-12-23T08:26:51.026Z,57.60
2017-12-23T08:29:19.075Z,51.07
2017-12-23T08:31:47.095Z,54.40
2017-12-23T08:34:15.261Z,56.23
2017-12-23T08:36:43.452Z,54.90
2017-12-23T08:39:11.481Z,58.07
2017-12-23T08:41:39.636Z,58.53
2017-12-23T08:44:07.667Z,55.20
2017-12-23T08:46:35.823Z,56.07
2017-12-23T08:49:03.958Z,50.73
2017-12-23T08:51:33.049Z,52.17
2017-12-23T08:54:01.092Z,50.73
2017-12-23T08:56:29.339Z,49.43
2017-12-23T08:58:57.350Z,52.07
2017-12-23T09:01:26.144Z,51.63
2017-12-23T09:03:55.034Z,55.73
2017-12-23T09:06:23.858Z,55.57
2017-12-23T09:08:51.927Z,52.57
2017-12-23T09:11:20.075Z,66.50
2017-12-23T09:13:48.887Z,48.30
2017-12-23T09:16:16.967Z,62.27
2017-12-23T09:18:45.151Z,49.90
2017-12-23T09:21:13.175Z,50.43
2017-12-23T09:23:41.186Z,54.27
2017-12-23T09:26:09.417Z,47.33
2017-12-23T09:28:39.925Z,47.43
2017-12-23T09:31:08.344Z,44.40
2017-12-23T09:33:37.772Z,44.33
2017-12-23T09:36:05.863Z,48.27
2017-12-23T09:38:33.911Z,49.90
2017-12-23T09:41:02.795Z,50.30
2017-12-23T09:43:31.550Z,52.70
2017-12-23T09:45:59.579Z,52.43
2017-12-23T09:48:27.756Z,51.30
2017-12-23T09:50:55.768Z,56.40
2017-12-23T09:53:24.390Z,52.27
2017-12-23T09:55:53.359Z,54.33
2017-12-23T09:58:21.478Z,54.60
2017-12-23T10:00:49.576Z,54.03
2017-12-23T10:03:17.727Z,53.47
2017-12-23T10:05:47.094Z,53.17
2017-12-23T10:08:16.893Z,50.83
2017-12-23T10:10:45.188Z,47.73
2017-12-23T10:13:14.034Z,49.20
2017-12-23T10:15:42.046Z,52.90
2017-12-23T10:18:10.216Z,51.67
2017-12-23T10:20:38.235Z,48.33
2017-12-23T10:23:06.264Z,50.37
2017-12-23T10:25:34.463Z,48.37
2017-12-23T10:28:03.256Z,53.63
2017-12-23T10:30:31.282Z,51.27
2017-12-23T10:32:59.418Z,52.73
2017-12-23T10:35:29.762Z,56.33
2017-12-23T10:38:00.708Z,52.00
2017-12-23T10:40:28.826Z,53.47
2017-12-23T10:42:57.578Z,53.10
2017-12-23T10:45:25.627Z,58.80
2017-12-23T10:47:53.795Z,58.07
2017-12-23T10:50:21.847Z,62.50
2017-12-23T10:52:50.726Z,63.20
2017-12-23T10:55:19.675Z,60.23
2017-12-23T10:57:47.728Z,63.87
2017-12-23T11:00:15.870Z,62.73
2017-12-23T11:02:44.647Z,59.87
2017-12-23T11:05:12.807Z,61.50
2017-12-23T11:07:40.958Z,65.13
2017-12-23T11:10:09.017Z,66.50
2017-12-23T11:12:37.178Z,65.80
2017-12-23T11:15:05.315Z,65.83
2017-12-23T11:17:34.148Z,68.43
2017-12-23T11:20:02.228Z,67.70
2017-12-23T11:22:30.379Z,69.87
2017-12-23T11:24:59.259Z,65.40
2017-12-23T11:27:28.083Z,62.90
2017-12-23T11:29:56.235Z,67.30
2017-12-23T11:32:24.998Z,68.93
2017-12-23T11:34:53.015Z,70.17
2017-12-23T11:37:21.148Z,73.80
2017-12-23T11:39:49.898Z,66.40
2017-12-23T11:42:17.930Z,69.43
2017-12-23T11:44:46.851Z,69.90
2017-12-23T11:47:14.914Z,67.00
2017-12-23T11:49:42.935Z,74.23
2017-12-23T11:52:11.111Z,76.90
2017-12-23T11:54:39.164Z,71.73
2017-12-23T11:57:07.383Z,77.87
2017-12-23T11:59:36.275Z,72.07
2017-12-23T12:02:05.072Z,78.30
2017-12-23T12:04:33.877Z,75.80
2017-12-23T12:07:02.084Z,74.27
2017-12-23T12:09:30.098Z,76.97
2017-12-23T12:11:58.892Z,78.13
2017-12-23T12:14:27.771Z,73.53
2017-12-23T12:16:56.564Z,78.63
2017-12-23T12:19:25.330Z,74.17
2017-12-23T12:21:53.491Z,80.20
2017-12-23T12:24:21.506Z,80.63
2017-12-23T12:26:50.267Z,80.90
2017-12-23T12:29:19.607Z,78.87
2017-12-23T12:31:49.305Z,81.60
2017-12-23T12:34:18.094Z,87.27
2017-12-23T12:36:47.099Z,81.87
2017-12-23T12:39:15.855Z,80.57
2017-12-23T12:41:43.892Z,87.70
2017-12-23T12:44:12.116Z,89.90
2017-12-23T12:46:40.268Z,83.97
2017-12-23T12:49:08.307Z,90.60
2017-12-23T12:51:36.469Z,85.60
2017-12-23T12:54:04.612Z,78.83
2017-12-23T12:56:32.734Z,83.90
2017-12-23T12:59:01.048Z,82.83
2017-12-23T13:01:29.059Z,84.10
2017-12-23T13:03:57.830Z,88.23
2017-12-23T13:06:26.066Z,85.60
2017-12-23T13:08:54.103Z,86.57
2017-12-23T13:11:22.130Z,86.57
2017-12-23T13:13:50.297Z,91.67
2017-12-23T13:16:18.342Z,86.57
2017-12-23T13:18:46.350Z,90.70
2017-12-23T13:21:14.492Z,92.03
2017-12-23T13:23:42.521Z,89.23
2017-12-23T13:26:11.347Z,91.17
2017-12-23T13:28:39.510Z,98.43
2017-12-23T13:31:07.572Z,100.00
2017-12-23T13:33:36.322Z,94.80
2017-12-23T13:36:04.731Z,102.80
2017-12-23T13:38:33.520Z,104.23
2017-12-23T13:41:02.283Z,107.10
2017-12-23T13:43:30.435Z,114.33
2017-12-23T13:45:58.528Z,104.00
2017-12-23T13:48:26.556Z,103.47
2017-12-23T13:50:54.724Z,104.53
2017-12-23T13:53:22.727Z,110.70
2017-12-23T13:55:50.968Z,108.47
2017-12-23T13:58:19.849Z,110.40
2017-12-23T14:00:48.782Z,113.03
2017-12-23T14:03:16.810Z,113.87
2017-12-23T14:05:45.707Z,119.00
2017-12-23T14:08:14.519Z,113.37
2017-12-23T14:10:42.609Z,115.40
2017-12-23T14:13:10.759Z,115.67
2017-12-23T14:15:38.843Z,109.20
2017-12-23T14:18:06.915Z,115.53
2017-12-23T14:20:35.051Z,112.73
2017-12-23T14:23:03.062Z,118.53
2017-12-23T14:25:31.078Z,115.37
2017-12-23T14:27:59.223Z,117.53
2017-12-23T14:30:27.243Z,123.30
2017-12-23T14:32:56.011Z,119.33
2017-12-23T14:35:24.201Z,115.33
2017-12-23T14:37:52.247Z,118.00
2017-12-23T14:40:20.262Z,112.73
2017-12-23T14:42:49.171Z,123.97
2017-12-23T14:45:17.212Z,118.13
2017-12-23T14:47:45.277Z,118.30
2017-12-23T14:50:13.444Z,116.77
2017-12-23T14:52:41.523Z,133.27
2017-12-23T14:55:09.539Z,131.73
2017-12-23T14:57:37.692Z,125.33
2017-12-23T15:00:06.455Z,118.87
2017-12-23T15:02:34.603Z,126.20
2017-12-23T15:05:02.774Z,124.60
2017-12-23T15:07:30.863Z,128.53
2017-12-23T15:09:58.904Z,128.10
2017-12-23T15:12:27.116Z,126.03
2017-12-23T15:14:55.130Z,119.20
2017-12-23T15:17:23.883Z,128.00
2017-12-23T15:19:52.035Z,115.87
2017-12-23T15:22:20.100Z,116.53
2017-12-23T15:24:48.183Z,119.87
2017-12-23T15:27:16.315Z,116.80
2017-12-23T15:29:45.113Z,127.47
2017-12-23T15:32:13.123Z,124.73
2017-12-23T15:34:41.306Z,129.80
2017-12-23T15:37:09.355Z,127.37
2017-12-23T15:39:37.407Z,125.10
2017-12-23T15:42:05.535Z,126.13
2017-12-23T15:44:33.562Z,134.67
2017-12-23T15:47:01.615Z,131.27
2017-12-23T15:49:30.494Z,135.37
2017-12-23T15:51:59.293Z,134.93
2017-12-23T15:54:28.063Z,144.07
2017-12-23T15:56:57.051Z,135.67
2017-12-23T15:59:25.104Z,134.83
2017-12-23T16:01:53.147Z,135.27
2017-12-23T16:04:21.500Z,136.30
2017-12-23T16:06:50.480Z,140.33
2017-12-23T16:09:19.301Z,140.23
2017-12-23T16:11:47.450Z,140.80
2017-12-23T16:14:16.224Z,148.00
2017-12-23T16:16:44.359Z,146.70
2017-12-23T16:19:12.491Z,145.07
2017-12-23T16:21:41.301Z,142.37
2017-12-23T16:24:09.327Z,146.90
2017-12-23T16:26:37.629Z,148.83
2017-12-23T16:29:06.432Z,141.87
2017-12-23T16:31:35.206Z,143.67
2017-12-23T16:34:04.099Z,139.63
2017-12-23T16:36:32.939Z,143.13
2017-12-23T16:39:00.998Z,140.40
2017-12-23T16:41:29.174Z,139.90
2017-12-23T16:43:57.828Z,132.67
2017-12-23T16:46:28.082Z,138.07
2017-12-23T16:48:56.242Z,128.87
2017-12-23T16:51:24.330Z,134.27
2017-12-23T16:53:52.392Z,131.27
2017-12-23T16:56:20.639Z,137.00
2017-12-23T16:58:48.699Z,137.80
2017-12-23T17:01:16.729Z,134.13
2017-12-23T17:03:44.933Z,140.50
2017-12-23T17:06:13.244Z,137.87
2017-12-23T17:08:42.112Z,141.80
2017-12-23T17:11:10.452Z,129.07
2017-12-23T17:13:38.458Z,132.17
2017-12-23T17:16:06.702Z,128.03
2017-12-23T17:18:35.019Z,132.67
2017-12-23T17:21:03.243Z,128.90
2017-12-23T17:23:31.307Z,125.53
2017-12-23T17:26:00.276Z,127.57
2017-12-23T17:28:39.795Z,125.90
2017-12-23T17:31:07.980Z,127.53
2017-12-23T17:33:36.276Z,131.97
2017-12-23T17:36:04.598Z,127.33
2017-12-23T17:38:32.780Z,127.17
2017-12-23T17:41:00.869Z,126.20
2017-12-23T17:43:28.891Z,127.10
2017-12-23T17:45:57.827Z,136.73
2017-12-23T17:48:25.983Z,140.77
2017-12-23T17:50:54.083Z,139.10
2017-12-23T17:53:22.222Z,136.47
2017-12-23T17:55:50.355Z,143.23
2017-12-23T17:58:18.412Z,139.27
2017-12-23T18:00:46.708Z,136.00
2017-12-23T18:03:14.760Z,139.63
2017-12-23T18:05:42.809Z,146.90
2017-12-23T18:08:11.136Z,139.03
2017-12-23T18:10:39.180Z,139.97
2017-12-23T18:13:07.237Z,131.93
2017-12-23T18:15:35.484Z,129.73
2017-12-23T18:18:04.267Z,130.60
2017-12-23T18:20:33.072Z,128.93
2017-12-23T18:23:01.206Z,129.50
2017-12-23T18:25:29.256Z,127.47
2017-12-23T18:27:57.343Z,127.43
2017-12-23T18:30:25.544Z,127.93
2017-12-23T18:32:54.340Z,124.30
2017-12-23T18:35:23.167Z,122.67
2017-12-23T18:37:51.314Z,127.07
2017-12-23T18:40:20.115Z,116.77
2017-12-23T18:42:48.135Z,121.37
2017-12-23T18:45:16.280Z,122.07
2017-12-23T18:47:44.348Z,123.10
2017-12-23T18:50:12.384Z,121.73
2017-12-23T18:52:41.344Z,119.67
2017-12-23T18:55:09.383Z,123.27
2017-12-23T18:57:37.444Z,114.87
2017-12-23T19:00:05.632Z,116.83
2017-12-23T19:02:33.642Z,117.07
2017-12-23T19:05:01.700Z,118.57
2017-12-23T19:07:29.843Z,120.67
2017-12-23T19:09:58.028Z,114.57
2017-12-23T19:12:26.043Z,115.00
2017-12-23T19:14:54.187Z,113.47
2017-12-23T19:17:22.239Z,112.10
2017-12-23T19:19:50.300Z,109.53
2017-12-23T19:22:18.434Z,106.87
2017-12-23T19:24:46.451Z,107.90
2017-12-23T19:27:14.519Z,109.43
2017-12-23T19:29:42.682Z,112.23
2017-12-23T19:32:11.483Z,107.30
2017-12-23T19:34:39.536Z,119.53
2017-12-23T19:37:08.419Z,127.23
2017-12-23T19:39:36.442Z,101.97
2017-12-23T19:42:04.483Z,106.67
2017-12-23T19:44:33.376Z,117.87
2017-12-23T19:47:02.147Z,97.80
2017-12-23T19:49:30.158Z,100.73
2017-12-23T19:51:58.294Z,91.80
2017-12-23T19:54:27.091Z,197.13
2017-12-23T19:56:55.910Z,178.23
2017-12-23T19:59:24.091Z,116.53
2017-12-23T20:01:52.152Z,109.00
2017-12-23T20:04:20.170Z,93.43
2017-12-23T20:06:48.379Z,226.43
2017-12-23T20:09:17.142Z,105.80
2017-12-23T20:11:45.294Z,132.03
2017-12-23T20:14:13.468Z,111.87
2017-12-23T20:16:41.528Z,152.87
2017-12-23T20:19:09.538Z,113.43
2017-12-23T20:21:37.736Z,167.47
2017-12-23T20:24:06.527Z,201.63
2017-12-23T20:26:35.379Z,117.53
2017-12-23T20:29:03.558Z,166.63
2017-12-23T20:31:31.627Z,177.80
2017-12-23T20:33:59.644Z,116.03
2017-12-23T20:36:28.612Z,111.37
2017-12-23T20:38:56.668Z,138.47
2017-12-23T20:41:24.679Z,430.17
2017-12-23T20:43:53.574Z,106.67
2017-12-23T20:46:22.390Z,409.10
2017-12-23T20:48:50.410Z,350.97
2017-12-23T20:51:18.591Z,389.07
2017-12-23T20:53:46.613Z,90.93
2017-12-23T20:56:14.724Z,265.00
2017-12-23T20:58:42.867Z,154.73
2017-12-23T21:01:10.916Z,148.63
2017-12-23T21:03:38.951Z,144.40
2017-12-23T21:06:07.098Z,131.97
2017-12-23T21:08:35.115Z,107.77
2017-12-23T21:11:03.870Z,252.97
2017-12-23T21:13:32.167Z,126.67
2017-12-23T21:16:00.218Z,112.33
2017-12-23T21:18:28.222Z,228.03
2017-12-23T21:20:57.103Z,135.53
2017-12-23T21:23:25.111Z,113.63
2017-12-23T21:25:53.291Z,109.13
2017-12-23T21:28:21.473Z,97.80
2017-12-23T21:30:49.520Z,95.13
2017-12-23T21:33:18.283Z,95.43
2017-12-23T21:35:46.452Z,130.03
2017-12-23T21:38:14.489Z,121.87
2017-12-23T21:40:42.552Z,118.23
2017-12-23T21:43:10.719Z,112.30
2017-12-23T21:45:38.803Z,93.57
2017-12-23T21:48:06.822Z,82.70
2017-12-23T21:50:34.973Z,99.97
2017-12-23T21:53:02.997Z,159.70
2017-12-23T21:55:31.835Z,119.80
2017-12-23T21:58:00.012Z,149.00
2017-12-23T22:00:28.131Z,107.80
2017-12-23T22:02:56.920Z,91.43
2017-12-23T22:05:25.822Z,259.03
2017-12-23T22:07:53.855Z,120.57
2017-12-23T22:10:21.907Z,93.97
2017-12-23T22:12:50.055Z,100.07
2017-12-23T22:15:18.198Z,224.23
2017-12-23T22:17:46.996Z,142.37
2017-12-23T22:20:15.919Z,139.00
2017-12-23T22:22:43.955Z,132.03
2017-12-23T22:25:12.714Z,113.87
2017-12-23T22:27:40.880Z,94.60
2017-12-23T22:30:08.930Z,92.20
2017-12-23T22:32:36.942Z,146.33
2017-12-23T22:35:05.111Z,92.30
2017-12-23T22:37:33.142Z,100.73
2017-12-23T22:40:01.174Z,153.20
2017-12-23T22:42:35.181Z,90.33
2017-12-23T22:45:04.083Z,137.60
2017-12-23T22:47:32.846Z,92.00
2017-12-23T22:50:00.977Z,121.07
2017-12-23T22:52:28.994Z,116.40
2017-12-23T22:54:57.167Z,109.13
2017-12-23T22:57:25.335Z,92.83
2017-12-23T22:59:53.354Z,81.80
2017-12-23T23:02:22.114Z,129.37
2017-12-23T23:04:50.279Z,84.73
2017-12-23T23:07:18.287Z,97.07
2017-12-23T23:09:47.084Z,135.23
2017-12-23T23:12:15.263Z,91.03
2017-12-23T23:14:43.323Z,133.00
2017-12-23T23:17:12.235Z,116.43
2017-12-23T23:19:40.375Z,91.10
2017-12-23T23:22:08.407Z,89.07
2017-12-23T23:24:36.456Z,274.63
2017-12-23T23:27:04.635Z,83.67
2017-12-23T23:29:32.658Z,92.33
2017-12-23T23:32:00.675Z,77.97
2017-12-23T23:34:28.822Z,142.27
2017-12-23T23:36:57.593Z,318.37
2017-12-23T23:39:25.614Z,116.10
2017-12-23T23:41:53.844Z,160.10
2017-12-23T23:44:21.887Z,91.63
2017-12-23T23:46:49.940Z,329.30
